Time;durP1;ratioP1;P1;durP2;ratioP2;P2;SDS_P1;SDS_P2;PMS_P1;PMS_P2;Temp;Humidity;BMP_temperature;BMP_pressure;BME280_temperature;BME280_humidity;BME280_pressure;Samples;Min_cycle;Max_cycle;Signal;HPM_P1;HPM_P2
2024/01/19 00:01:11;;;;;;;41.38;26.35;;;-2.40;99.90;;;;;;5070343;28;20800;-73
2024/01/19 00:03:59;;;;;;;34.08;24.23;;;-2.40;99.90;;;;;;5063776;28;20687;-73
2024/01/19 00:06:46;;;;;;;37.63;24.98;;;-2.30;99.90;;;;;;5064689;28;20203;-73
2024/01/19 00:09:32;;;;;;;37.58;24.73;;;-2.30;99.90;;;;;;5069524;28;20216;-72
2024/01/19 00:12:18;;;;;;;35.10;24.67;;;-2.30;99.90;;;;;;5067282;28;20251;-71
2024/01/19 00:15:06;;;;;;;42.10;28.27;;;-2.30;99.90;;;;;;5065322;28;20202;-73
2024/01/19 00:17:52;;;;;;;33.83;24.50;;;-2.20;99.90;;;;;;5068614;28;20591;-72
2024/01/19 00:20:39;;;;;;;35.90;26.20;;;-2.20;99.90;;;;;;5064691;28;20221;-71
2024/01/19 00:23:24;;;;;;;40.42;25.27;;;-2.20;99.90;;;;;;5067807;28;20208;-72
2024/01/19 00:26:11;;;;;;;38.80;28.13;;;-2.30;99.90;;;;;;5062470;28;20211;-71
2024/01/19 00:28:56;;;;;;;40.38;26.05;;;-2.30;99.90;;;;;;5066551;28;20345;-71
2024/01/19 00:31:46;;;;;;;36.28;25.15;;;-2.10;99.90;;;;;;5069774;28;20224;-71
2024/01/19 00:34:33;;;;;;;39.25;26.92;;;-2.00;99.90;;;;;;5062704;28;20201;-73
2024/01/19 00:37:20;;;;;;;44.72;26.35;;;-1.90;99.90;;;;;;5061282;28;20250;-70
2024/01/19 00:40:11;;;;;;;46.92;26.75;;;-1.70;99.90;;;;;;5065450;28;20577;-72
2024/01/19 00:42:57;;;;;;;43.47;27.50;;;-1.60;99.90;;;;;;5067611;28;20206;-72
2024/01/19 00:45:42;;;;;;;42.78;28.10;;;-1.50;99.90;;;;;;5067741;28;20705;-73
2024/01/19 00:48:28;;;;;;;43.80;28.10;;;-1.50;99.90;;;;;;5070095;28;20215;-73
2024/01/19 00:51:14;;;;;;;37.15;25.80;;;-1.50;99.90;;;;;;5067206;28;20435;-73
2024/01/19 00:54:01;;;;;;;37.65;24.63;;;-1.50;99.90;;;;;;5060606;28;20682;-72
2024/01/19 00:56:47;;;;;;;39.45;26.67;;;-1.60;99.90;;;;;;5063967;28;20229;-71
2024/01/19 00:59:32;;;;;;;42.03;25.90;;;-1.50;99.90;;;;;;5067467;28;20206;-73
2024/01/19 01:02:19;;;;;;;38.38;28.45;;;-1.40;99.90;;;;;;5065812;28;20343;-73
2024/01/19 01:05:05;;;;;;;43.20;28.92;;;-1.40;99.90;;;;;;5066505;28;20455;-72
2024/01/19 01:07:51;;;;;;;43.03;27.60;;;-1.30;99.90;;;;;;5070301;28;20199;-73
2024/01/19 01:10:38;;;;;;;41.80;28.35;;;-1.40;99.90;;;;;;5063876;28;20236;-72
2024/01/19 01:13:23;;;;;;;41.33;29.63;;;-1.50;99.90;;;;;;5067199;28;20216;-72
2024/01/19 01:16:09;;;;;;;44.22;31.58;;;-1.50;99.90;;;;;;5067866;28;20628;-73
2024/01/19 01:18:55;;;;;;;44.13;30.45;;;-1.60;99.90;;;;;;5064228;28;20237;-73
2024/01/19 01:21:40;;;;;;;42.78;29.42;;;-1.60;99.90;;;;;;5061421;28;20713;-71
2024/01/19 01:24:26;;;;;;;47.25;31.20;;;-1.80;99.90;;;;;;5067687;28;20204;-71
2024/01/19 01:27:13;;;;;;;49.17;30.42;;;-1.90;99.90;;;;;;5057109;28;20204;-71
2024/01/19 01:29:59;;;;;;;50.83;29.50;;;-1.80;99.90;;;;;;5064135;28;20254;-71
2024/01/19 01:32:44;;;;;;;58.17;32.45;;;-1.70;99.90;;;;;;5068141;28;20294;-71
2024/01/19 01:35:30;;;;;;;53.33;32.65;;;-1.50;99.90;;;;;;5069357;28;20277;-71
2024/01/19 01:38:15;;;;;;;46.60;31.08;;;-1.50;99.90;;;;;;5066420;28;20287;-71
2024/01/19 01:41:01;;;;;;;46.28;29.70;;;-1.30;99.90;;;;;;5067003;28;20228;-71
2024/01/19 01:43:48;;;;;;;53.60;32.72;;;-1.30;99.90;;;;;;5067181;28;20286;-70
2024/01/19 01:46:34;;;;;;;45.85;32.42;;;-1.40;99.90;;;;;;5068432;28;20514;-71
2024/01/19 01:49:19;;;;;;;44.58;31.67;;;-1.60;99.90;;;;;;5065835;28;20215;-71
2024/01/19 01:52:06;;;;;;;45.80;30.13;;;-1.60;99.90;;;;;;5066736;28;20312;-71
2024/01/19 01:54:52;;;;;;;41.72;29.45;;;-1.60;99.90;;;;;;5066843;28;20341;-71
2024/01/19 01:57:38;;;;;;;41.05;30.38;;;-1.80;99.90;;;;;;5063949;28;20355;-71
2024/01/19 02:00:26;;;;;;;49.20;31.08;;;-1.90;99.90;;;;;;5068686;28;20574;-71
2024/01/19 02:03:12;;;;;;;45.20;29.02;;;-2.10;99.90;;;;;;5057421;28;20797;-71
2024/01/19 02:05:57;;;;;;;39.95;27.58;;;-2.10;99.90;;;;;;5067544;28;20767;-71
2024/01/19 02:08:43;;;;;;;40.70;28.60;;;-2.10;99.90;;;;;;5070276;28;20200;-71
2024/01/19 02:11:28;;;;;;;43.30;28.35;;;-2.10;99.90;;;;;;5067555;28;20257;-71
2024/01/19 02:14:14;;;;;;;44.63;29.30;;;-1.90;99.90;;;;;;5067287;28;20247;-71
2024/01/19 02:17:01;;;;;;;46.67;31.13;;;-1.80;99.90;;;;;;5062141;28;20719;-71
2024/01/19 02:19:47;;;;;;;39.70;27.52;;;-1.60;99.90;;;;;;5059165;28;20670;-71
2024/01/19 02:22:33;;;;;;;42.67;27.70;;;-1.50;99.90;;;;;;5067822;28;20258;-71
2024/01/19 02:25:20;;;;;;;41.70;27.23;;;-1.30;99.90;;;;;;5066616;28;20332;-70
2024/01/19 02:28:06;;;;;;;39.97;25.88;;;-1.20;99.90;;;;;;5067831;28;20207;-71
2024/01/19 02:30:51;;;;;;;39.20;27.73;;;-1.30;99.90;;;;;;5066995;28;20235;-71
2024/01/19 02:33:37;;;;;;;46.25;31.23;;;-1.30;99.90;;;;;;5067784;28;20327;-71
2024/01/19 02:36:23;;;;;;;40.97;29.27;;;-1.30;99.90;;;;;;5063384;28;20219;-71
2024/01/19 02:39:09;;;;;;;44.78;29.45;;;-1.20;99.90;;;;;;5068646;28;20224;-71
2024/01/19 02:41:56;;;;;;;43.45;27.63;;;-1.20;99.90;;;;;;5066902;28;20297;-71
2024/01/19 02:44:41;;;;;;;45.78;26.50;;;-1.20;99.90;;;;;;5068230;28;20203;-71
2024/01/19 02:47:27;;;;;;;46.67;31.20;;;-1.30;99.90;;;;;;5067707;28;20581;-71
2024/01/19 02:50:13;;;;;;;51.00;28.20;;;-1.10;99.90;;;;;;5066807;28;20304;-71
2024/01/19 02:52:59;;;;;;;45.47;29.75;;;-1.10;99.90;;;;;;5062006;28;20291;-71
2024/01/19 02:55:44;;;;;;;37.28;28.13;;;-1.20;99.90;;;;;;5069152;28;20216;-71
2024/01/19 02:58:32;;;;;;;43.92;30.65;;;-1.30;99.90;;;;;;5067862;28;20196;-71
2024/01/19 03:01:18;;;;;;;45.50;32.45;;;-1.40;99.90;;;;;;5061405;28;20223;-71
2024/01/19 03:04:04;;;;;;;44.65;31.23;;;-1.60;99.90;;;;;;5067719;28;20208;-71
2024/01/19 03:06:50;;;;;;;47.20;33.22;;;-1.60;99.90;;;;;;5068983;28;20309;-71
2024/01/19 03:09:35;;;;;;;48.92;32.70;;;-1.60;99.90;;;;;;5064237;28;20205;-71
2024/01/19 03:12:21;;;;;;;47.15;32.40;;;-1.60;99.90;;;;;;5067162;28;20305;-71
2024/01/19 03:15:09;;;;;;;54.13;33.90;;;-1.60;99.90;;;;;;5068063;28;20206;-71
2024/01/19 03:17:54;;;;;;;45.13;30.10;;;-1.80;99.90;;;;;;5056817;28;20594;-71
2024/01/19 03:20:40;;;;;;;45.78;33.83;;;-1.80;99.90;;;;;;5068218;28;20417;-71
2024/01/19 03:23:25;;;;;;;52.33;32.03;;;-1.70;99.90;;;;;;5060655;28;20200;-71
2024/01/19 03:26:11;;;;;;;48.20;31.15;;;-1.80;99.90;;;;;;5067317;28;20575;-71
2024/01/19 03:28:57;;;;;;;44.97;31.98;;;-1.80;99.90;;;;;;5063152;28;20591;-72
2024/01/19 03:31:44;;;;;;;44.47;31.33;;;-1.60;99.90;;;;;;5066941;28;20602;-72
2024/01/19 03:34:29;;;;;;;45.92;32.03;;;-1.60;99.90;;;;;;5071470;28;20220;-72
2024/01/19 03:37:15;;;;;;;46.08;29.27;;;-1.50;99.90;;;;;;5072029;28;20299;-71
2024/01/19 03:40:00;;;;;;;45.92;27.38;;;-1.60;99.90;;;;;;5070983;28;20346;-71
2024/01/19 03:42:46;;;;;;;45.22;26.10;;;-1.50;99.90;;;;;;5072306;28;20204;-72
2024/01/19 03:45:32;;;;;;;39.30;27.33;;;-1.40;99.90;;;;;;5066367;28;20212;-72
2024/01/19 03:48:19;;;;;;;41.05;26.63;;;-1.50;99.90;;;;;;5070773;28;20274;-72
2024/01/19 03:51:05;;;;;;;41.42;28.33;;;-1.40;99.90;;;;;;5068099;28;20222;-71
2024/01/19 03:53:51;;;;;;;37.47;27.23;;;-1.40;99.90;;;;;;5071845;28;20498;-72
2024/01/19 03:56:38;;;;;;;41.42;30.52;;;-1.20;99.90;;;;;;5071941;28;20308;-71
2024/01/19 03:59:23;;;;;;;49.60;28.67;;;-1.10;99.90;;;;;;5069416;28;20208;-72
2024/01/19 04:02:09;;;;;;;46.25;30.48;;;-1.10;99.90;;;;;;5064596;28;20757;-72
2024/01/19 04:04:56;;;;;;;41.47;28.63;;;-1.30;99.90;;;;;;5071941;28;20565;-72
2024/01/19 04:07:41;;;;;;;38.53;26.25;;;-1.40;99.90;;;;;;5072288;28;20205;-71
2024/01/19 04:10:27;;;;;;;36.92;24.42;;;-1.70;99.90;;;;;;5072475;28;20204;-71
2024/01/19 04:13:13;;;;;;;39.53;25.83;;;-1.90;99.90;;;;;;5071132;28;20733;-72
2024/01/19 04:15:58;;;;;;;34.35;23.20;;;-2.10;99.90;;;;;;5066019;28;20203;-71
2024/01/19 04:18:44;;;;;;;40.47;25.65;;;-2.20;99.90;;;;;;5065502;28;20223;-72
2024/01/19 04:21:31;;;;;;;35.92;25.58;;;-2.30;99.90;;;;;;5071740;28;20801;-71
2024/01/19 04:24:17;;;;;;;34.45;23.85;;;-2.40;99.90;;;;;;5070552;28;20231;-72
2024/01/19 04:27:02;;;;;;;43.80;26.13;;;-2.50;99.90;;;;;;5071093;28;20682;-72
2024/01/19 04:29:48;;;;;;;41.47;26.60;;;-2.60;99.90;;;;;;5071462;28;20687;-71
2024/01/19 04:32:34;;;;;;;34.65;25.35;;;-2.60;99.90;;;;;;5070490;28;20221;-71
2024/01/19 04:35:20;;;;;;;37.70;27.77;;;-2.40;99.90;;;;;;5064271;28;20213;-72
2024/01/19 04:38:07;;;;;;;45.13;26.67;;;-2.20;99.90;;;;;;5071141;28;20725;-71
2024/01/19 04:40:52;;;;;;;38.97;23.60;;;-2.30;99.90;;;;;;5071658;28;20298;-72
2024/01/19 04:43:38;;;;;;;45.53;27.80;;;-2.20;99.90;;;;;;5071432;28;20228;-71
2024/01/19 04:46:23;;;;;;;41.17;25.88;;;-2.00;99.90;;;;;;5072096;28;20340;-71
2024/01/19 04:49:09;;;;;;;38.33;23.58;;;-1.90;99.90;;;;;;5071177;28;20281;-71
2024/01/19 04:51:55;;;;;;;35.13;22.80;;;-1.80;99.90;;;;;;5061615;28;20230;-71
2024/01/19 04:54:42;;;;;;;36.33;24.77;;;-1.70;99.90;;;;;;5071772;28;20270;-71
2024/01/19 04:57:28;;;;;;;33.25;23.00;;;-1.60;99.90;;;;;;5051160;28;20223;-72
2024/01/19 05:00:14;;;;;;;38.40;23.90;;;-1.70;99.90;;;;;;5071502;28;20200;-72
2024/01/19 05:03:01;;;;;;;35.67;25.48;;;-1.70;99.90;;;;;;5055332;28;20212;-72
2024/01/19 05:05:46;;;;;;;35.22;25.13;;;-1.50;99.90;;;;;;5054924;28;20658;-71
2024/01/19 05:08:32;;;;;;;41.85;25.40;;;-1.50;99.90;;;;;;5054605;28;20196;-71
2024/01/19 05:11:19;;;;;;;36.95;26.33;;;-1.40;99.90;;;;;;5060610;28;20227;-71
2024/01/19 05:14:06;;;;;;;36.90;25.80;;;-1.50;99.90;;;;;;5053403;28;20570;-72
2024/01/19 05:16:51;;;;;;;37.30;26.15;;;-1.50;99.90;;;;;;5059518;28;20232;-72
2024/01/19 05:19:37;;;;;;;40.47;26.85;;;-1.50;99.90;;;;;;5045541;28;20255;-72
2024/01/19 05:22:22;;;;;;;37.28;26.40;;;-1.40;99.90;;;;;;5059255;28;20228;-71
2024/01/19 05:25:09;;;;;;;34.38;24.35;;;-1.30;99.90;;;;;;5054543;28;20211;-71
2024/01/19 05:27:56;;;;;;;41.22;26.60;;;-1.50;99.90;;;;;;5054876;28;20196;-71
2024/01/19 05:30:42;;;;;;;41.28;26.55;;;-1.60;99.90;;;;;;5046240;28;20215;-71
2024/01/19 05:33:28;;;;;;;43.67;26.92;;;-1.60;99.90;;;;;;5044391;28;20215;-72
2024/01/19 05:36:14;;;;;;;37.47;25.15;;;-1.70;99.90;;;;;;5052520;28;20212;-71
2024/01/19 05:38:59;;;;;;;36.00;25.25;;;-1.80;99.90;;;;;;5052468;28;20672;-72
2024/01/19 05:41:45;;;;;;;41.63;25.20;;;-2.00;99.90;;;;;;5057216;28;20231;-71
2024/01/19 05:44:32;;;;;;;32.30;22.60;;;-2.00;99.90;;;;;;5066247;28;20694;-72
2024/01/19 05:47:18;;;;;;;37.67;22.60;;;-2.30;99.90;;;;;;5054181;28;20201;-72
2024/01/19 05:50:03;;;;;;;39.70;24.67;;;-2.30;99.90;;;;;;5053779;28;20723;-72
2024/01/19 05:52:49;;;;;;;36.45;23.60;;;-2.30;99.90;;;;;;5062236;28;20213;-72
2024/01/19 05:55:34;;;;;;;38.30;23.20;;;-2.50;99.90;;;;;;5046734;28;20208;-72
2024/01/19 05:58:20;;;;;;;34.58;22.48;;;-2.60;99.90;;;;;;5059750;28;20631;-71
2024/01/19 06:01:07;;;;;;;35.35;23.35;;;-2.60;99.90;;;;;;5058838;28;20242;-72
2024/01/19 06:03:53;;;;;;;37.85;20.50;;;-2.80;99.90;;;;;;5053573;28;20204;-71
2024/01/19 06:06:38;;;;;;;31.17;20.70;;;-2.90;99.90;;;;;;5051917;28;20192;-72
2024/01/19 06:09:24;;;;;;;39.55;24.10;;;-3.00;99.90;;;;;;5067621;28;20200;-71
2024/01/19 06:12:10;;;;;;;34.55;20.98;;;-3.10;99.90;;;;;;5060283;28;20231;-72
2024/01/19 06:14:55;;;;;;;33.05;21.08;;;-3.20;99.90;;;;;;5056211;28;20323;-72
2024/01/19 06:17:42;;;;;;;31.23;21.23;;;-3.30;99.90;;;;;;5063856;28;20224;-72
2024/01/19 06:20:28;;;;;;;33.50;21.33;;;-3.50;99.90;;;;;;5051898;28;20711;-72
2024/01/19 06:23:14;;;;;;;32.03;22.00;;;-3.50;99.90;;;;;;5061581;28;20221;-72
2024/01/19 06:26:00;;;;;;;31.45;22.42;;;-3.50;99.90;;;;;;5067160;28;20207;-72
2024/01/19 06:28:45;;;;;;;36.28;22.90;;;-3.60;99.90;;;;;;5054218;28;20689;-72
2024/01/19 06:31:31;;;;;;;30.90;21.63;;;-3.60;99.90;;;;;;5051455;28;20235;-72
2024/01/19 06:34:19;;;;;;;30.98;21.52;;;-3.60;99.90;;;;;;5059530;28;20231;-72
2024/01/19 06:37:04;;;;;;;33.42;23.00;;;-3.60;99.90;;;;;;5052364;28;20203;-72
2024/01/19 06:39:50;;;;;;;36.28;22.50;;;-3.60;99.90;;;;;;5047396;28;20696;-71
2024/01/19 06:42:36;;;;;;;33.30;22.45;;;-3.50;99.90;;;;;;5058835;28;20238;-72
2024/01/19 06:45:21;;;;;;;28.48;22.52;;;-3.50;99.90;;;;;;5060775;28;20204;-72
2024/01/19 06:48:07;;;;;;;32.95;21.13;;;-3.60;99.90;;;;;;5054391;28;20660;-72
2024/01/19 06:50:54;;;;;;;30.63;21.70;;;-3.90;99.90;;;;;;5060400;28;20835;-72
2024/01/19 06:53:40;;;;;;;31.58;22.58;;;-4.00;99.90;;;;;;5046504;28;20207;-72
2024/01/19 06:56:25;;;;;;;35.10;23.67;;;-3.90;99.90;;;;;;5053239;28;20215;-71
2024/01/19 06:59:11;;;;;;;31.05;22.25;;;-4.10;99.90;;;;;;5060803;28;20227;-72
2024/01/19 07:01:57;;;;;;;31.95;23.55;;;-4.10;99.90;;;;;;5052314;28;20223;-71
2024/01/19 07:04:42;;;;;;;35.72;23.13;;;-4.20;99.90;;;;;;5061319;28;20203;-72
2024/01/19 07:07:30;;;;;;;35.08;25.10;;;-4.30;99.90;;;;;;5057485;28;20204;-71
2024/01/19 07:10:15;;;;;;;38.50;24.73;;;-4.40;99.90;;;;;;5058017;28;20207;-71
2024/01/19 07:13:01;;;;;;;33.63;24.98;;;-4.50;99.90;;;;;;5052017;28;20202;-72
2024/01/19 07:15:47;;;;;;;35.47;24.55;;;-4.50;99.90;;;;;;5051207;28;20224;-71
2024/01/19 07:18:32;;;;;;;30.65;21.23;;;-4.30;99.90;;;;;;5063040;28;20322;-71
2024/01/19 07:21:18;;;;;;;31.95;22.45;;;-4.30;99.90;;;;;;5063118;28;20226;-73
2024/01/19 07:24:05;;;;;;;31.02;20.92;;;-4.20;99.90;;;;;;5058580;28;20207;-72
2024/01/19 07:26:51;;;;;;;35.63;23.27;;;-4.10;99.90;;;;;;5058652;28;20227;-71
2024/01/19 07:29:37;;;;;;;34.28;23.98;;;-4.00;99.90;;;;;;5050232;28;20581;-73
2024/01/19 07:32:24;;;;;;;30.85;22.33;;;-4.00;99.90;;;;;;5064107;28;20235;-73
2024/01/19 07:35:10;;;;;;;33.58;22.17;;;-4.20;99.90;;;;;;5064159;28;20350;-72
2024/01/19 07:37:56;;;;;;;39.35;23.15;;;-4.30;99.90;;;;;;5060377;28;20227;-73
2024/01/19 07:40:43;;;;;;;33.60;22.10;;;-4.40;99.90;;;;;;5050756;28;20221;-73
2024/01/19 07:43:28;;;;;;;32.95;22.65;;;-4.40;99.90;;;;;;5057104;28;20205;-73
2024/01/19 07:46:15;;;;;;;34.63;22.73;;;-4.50;99.90;;;;;;5058026;28;20227;-71
2024/01/19 07:49:00;;;;;;;37.63;25.20;;;-4.50;99.90;;;;;;5056182;28;20197;-71
2024/01/19 07:51:46;;;;;;;36.67;24.95;;;-4.20;99.90;;;;;;5059979;28;20229;-73
2024/01/19 07:54:31;;;;;;;38.20;23.98;;;-4.10;99.90;;;;;;5062228;28;20599;-73
2024/01/19 07:57:18;;;;;;;31.38;23.90;;;-3.90;99.90;;;;;;5064779;28;20207;-73
2024/01/19 08:00:06;;;;;;;36.40;23.17;;;-3.70;99.90;;;;;;5065844;28;20290;-73
2024/01/19 08:02:51;;;;;;;43.53;27.85;;;-3.60;99.90;;;;;;5054407;28;20226;-73
2024/01/19 08:05:37;;;;;;;42.22;27.90;;;-3.40;99.90;;;;;;5049072;28;20201;-73
2024/01/19 08:08:23;;;;;;;40.33;27.73;;;-3.30;99.90;;;;;;5048884;28;20286;-72
2024/01/19 08:11:09;;;;;;;43.05;28.17;;;-3.30;99.90;;;;;;5043343;28;20234;-71
2024/01/19 08:13:56;;;;;;;42.20;29.17;;;-3.20;99.90;;;;;;5048045;28;20209;-73
2024/01/19 08:16:43;;;;;;;42.03;27.77;;;-3.40;99.90;;;;;;5051178;28;20233;-72
2024/01/19 08:19:28;;;;;;;48.30;31.15;;;-3.50;99.90;;;;;;5047448;28;20359;-73
2024/01/19 08:22:14;;;;;;;54.20;32.17;;;-3.40;99.90;;;;;;5053088;28;20306;-73
2024/01/19 08:25:00;;;;;;;47.10;30.63;;;-3.40;99.90;;;;;;5045701;28;20209;-69
2024/01/19 08:27:46;;;;;;;46.15;31.75;;;-3.50;99.90;;;;;;5044696;28;20293;-73
2024/01/19 08:30:32;;;;;;;52.33;35.45;;;-3.40;99.90;;;;;;5047222;28;20245;-71
2024/01/19 08:33:18;;;;;;;50.75;33.25;;;-3.30;99.90;;;;;;5048000;28;20204;-73
2024/01/19 08:36:04;;;;;;;61.28;38.15;;;-3.10;99.90;;;;;;5044869;28;20235;-69
2024/01/19 08:38:49;;;;;;;47.13;32.88;;;-2.90;99.90;;;;;;5045110;28;20235;-73
2024/01/19 08:41:41;;;;;;;52.90;33.80;;;-2.80;99.90;;;;;;5047394;28;20229;-71
2024/01/19 08:44:27;;;;;;;59.70;35.10;;;-2.70;99.90;;;;;;5044751;28;20244;-73
2024/01/19 08:47:14;;;;;;;55.00;34.30;;;-2.60;99.90;;;;;;5043091;28;20385;-71
2024/01/19 08:50:01;;;;;;;62.92;36.97;;;-2.50;99.90;;;;;;5043685;28;20213;-68
2024/01/19 08:52:47;;;;;;;65.28;39.85;;;-2.30;99.90;;;;;;5048589;28;20565;-73
2024/01/19 08:55:32;;;;;;;65.10;41.92;;;-2.20;99.90;;;;;;5055303;28;20219;-73
2024/01/19 08:58:18;;;;;;;77.30;39.35;;;-2.10;99.90;;;;;;5061879;28;20235;-71
2024/01/19 09:01:04;;;;;;;67.03;40.53;;;-2.10;99.90;;;;;;5054733;28;20293;-74
2024/01/19 09:03:51;;;;;;;55.83;35.22;;;-2.10;99.90;;;;;;5052301;28;20212;-73
2024/01/19 09:06:36;;;;;;;86.07;41.30;;;-2.10;99.90;;;;;;5061643;28;20295;-74
2024/01/19 09:09:22;;;;;;;65.28;38.35;;;-2.10;99.90;;;;;;5064352;28;20195;-71
2024/01/19 09:12:08;;;;;;;70.35;40.42;;;-2.20;99.90;;;;;;5056366;28;20332;-71
2024/01/19 09:14:54;;;;;;;75.30;42.42;;;-2.10;99.90;;;;;;5052522;28;20200;-73
2024/01/19 09:17:40;;;;;;;72.85;39.13;;;-2.10;99.90;;;;;;5057445;28;20275;-73
2024/01/19 09:20:27;;;;;;;62.17;38.80;;;-2.00;99.90;;;;;;5062371;28;20212;-73
2024/01/19 09:23:12;;;;;;;77.70;38.35;;;-2.00;99.90;;;;;;5061845;28;20200;-73
2024/01/19 09:25:57;;;;;;;58.92;37.55;;;-2.10;99.90;;;;;;5065224;28;20200;-74
2024/01/19 09:28:43;;;;;;;76.07;37.38;;;-2.00;99.90;;;;;;5064983;28;20208;-73
2024/01/19 09:31:29;;;;;;;73.20;38.22;;;-2.00;99.90;;;;;;5057423;28;20586;-73
2024/01/19 09:34:15;;;;;;;58.53;34.67;;;-1.90;99.90;;;;;;5064011;28;20213;-71
2024/01/19 09:37:03;;;;;;;60.38;36.10;;;-1.80;99.90;;;;;;5058577;28;20320;-74
2024/01/19 09:39:48;;;;;;;62.67;34.05;;;-1.80;99.90;;;;;;5071059;28;20223;-73
2024/01/19 09:42:35;;;;;;;58.20;37.50;;;-2.10;99.90;;;;;;5062128;28;20235;-74
2024/01/19 09:45:21;;;;;;;61.30;37.58;;;-1.90;99.90;;;;;;5059164;28;20236;-69
2024/01/19 09:48:21;;;;;;;70.15;37.60;;;-1.80;99.90;;;;;;5060383;28;20330;-71
2024/01/19 09:51:09;;;;;;;54.28;34.50;;;-1.80;99.90;;;;;;5059386;28;20632;-71
2024/01/19 09:53:59;;;;;;;61.58;36.17;;;-1.70;99.90;;;;;;5052281;28;20333;-74
2024/01/19 09:56:44;;;;;;;70.32;39.75;;;-1.60;99.90;;;;;;5056239;28;20346;-74
2024/01/19 09:59:32;;;;;;;70.65;42.70;;;-1.50;99.90;;;;;;5063160;28;20230;-73
2024/01/19 10:02:18;;;;;;;71.22;42.13;;;-1.40;99.90;;;;;;5059288;28;20322;-69
2024/01/19 10:05:05;;;;;;;85.55;48.67;;;-1.50;99.90;;;;;;5055009;28;20654;-73
2024/01/19 10:07:55;;;;;;;80.40;47.22;;;-1.50;99.90;;;;;;5050563;28;20599;-73
2024/01/19 10:10:43;;;;;;;58.05;37.90;;;-1.30;99.90;;;;;;5061036;28;20316;-73
2024/01/19 10:13:28;;;;;;;62.83;37.75;;;-1.00;99.90;;;;;;5057604;28;20212;-73
2024/01/19 10:16:14;;;;;;;69.68;44.05;;;-0.80;99.90;;;;;;5056210;28;20348;-73
2024/01/19 10:19:02;;;;;;;71.68;45.13;;;-0.50;99.90;;;;;;5052974;28;20220;-72
2024/01/19 10:21:47;;;;;;;69.20;44.25;;;-0.30;99.90;;;;;;5061163;28;20244;-73
2024/01/19 10:24:33;;;;;;;81.97;48.75;;;-0.30;99.90;;;;;;5059853;28;20682;-73
2024/01/19 10:27:20;;;;;;;76.90;44.03;;;-0.10;99.90;;;;;;5069333;28;20212;-75
2024/01/19 10:30:11;;;;;;;78.30;43.70;;;0.00;99.90;;;;;;5059968;28;20200;-73
2024/01/19 10:33:04;;;;;;;70.30;42.75;;;0.20;99.90;;;;;;5052567;28;20698;-73
2024/01/19 10:35:50;;;;;;;81.10;47.67;;;0.20;99.90;;;;;;5050861;28;20258;-71
2024/01/19 10:38:36;;;;;;;75.97;43.55;;;0.20;99.90;;;;;;5061451;28;20359;-74
2024/01/19 10:41:25;;;;;;;73.05;41.72;;;0.40;99.90;;;;;;5060558;28;20293;-73
2024/01/19 10:44:13;;;;;;;63.40;38.30;;;0.40;99.90;;;;;;5060759;28;20204;-73
2024/01/19 10:46:59;;;;;;;68.35;34.67;;;0.50;99.90;;;;;;5058038;28;20259;-74
2024/01/19 10:49:45;;;;;;;54.85;33.17;;;0.60;99.90;;;;;;5058607;28;20223;-72
2024/01/19 10:52:32;;;;;;;54.22;34.58;;;0.60;99.90;;;;;;5068279;28;20228;-71
2024/01/19 10:55:19;;;;;;;55.58;33.55;;;0.70;99.90;;;;;;5063138;28;20592;-74
2024/01/19 10:58:13;;;;;;;45.13;31.08;;;0.70;99.90;;;;;;5063381;28;20595;-73
2024/01/19 11:01:14;;;;;;;47.25;28.98;;;0.80;99.90;;;;;;5057552;28;20723;-72
2024/01/19 11:03:59;;;;;;;41.25;27.92;;;0.80;99.90;;;;;;5057689;28;20250;-73
2024/01/19 11:06:45;;;;;;;41.78;28.40;;;0.80;99.90;;;;;;5060009;28;20212;-73
2024/01/19 11:09:31;;;;;;;37.85;27.55;;;0.80;99.90;;;;;;5068510;28;20757;-72
2024/01/19 11:12:19;;;;;;;41.53;26.17;;;1.00;99.90;;;;;;5066018;28;20644;-73
2024/01/19 11:15:10;;;;;;;34.38;25.15;;;1.10;99.90;;;;;;5063685;28;20205;-73
2024/01/19 11:17:59;;;;;;;38.35;24.30;;;1.20;99.90;;;;;;5069025;28;20204;-73
2024/01/19 11:20:45;;;;;;;34.60;23.48;;;1.30;99.90;;;;;;5059888;28;20227;-74
2024/01/19 11:23:32;;;;;;;34.53;22.58;;;1.30;99.90;;;;;;5059915;28;20254;-71
2024/01/19 11:26:25;;;;;;;35.95;24.73;;;1.20;99.90;;;;;;5063482;28;20203;-73
2024/01/19 11:29:19;;;;;;;36.03;22.73;;;1.20;99.90;;;;;;5060544;28;20332;-73
2024/01/19 11:32:05;;;;;;;33.58;23.20;;;1.20;99.90;;;;;;5062949;28;20234;-74
2024/01/19 11:34:52;;;;;;;34.42;23.83;;;1.10;99.90;;;;;;5063763;28;20201;-73
2024/01/19 11:37:43;;;;;;;30.60;21.45;;;1.20;99.90;;;;;;5062693;28;20681;-71
2024/01/19 11:40:53;;;;;;;32.50;21.02;;;0.90;99.90;;;;;;5070542;28;20224;-72
2024/01/19 11:43:40;;;;;;;27.65;21.15;;;0.90;99.90;;;;;;5053524;28;20315;-74
2024/01/19 11:46:42;;;;;;;33.40;19.92;;;0.90;99.90;;;;;;5069218;28;20287;-72
2024/01/19 11:49:59;;;;;;;29.52;20.55;;;1.00;99.90;;;;;;5072232;28;20693;-74
2024/01/19 11:52:45;;;;;;;28.70;19.73;;;1.10;99.90;;;;;;4974802;28;20257;-74
2024/01/19 11:55:45;;;;;;;29.42;19.90;;;1.30;99.90;;;;;;5060915;28;20215;-73
2024/01/19 11:58:38;;;;;;;31.00;19.13;;;1.20;99.90;;;;;;5065601;28;20569;-73
2024/01/19 12:01:24;;;;;;;33.72;21.00;;;1.20;99.90;;;;;;5063273;28;20234;-73
2024/01/19 12:04:10;;;;;;;26.65;20.13;;;1.20;99.90;;;;;;5063329;28;20250;-73
2024/01/19 12:07:06;;;;;;;31.95;20.30;;;1.30;99.90;;;;;;5065367;28;20204;-73
2024/01/19 12:10:06;;;;;;;28.10;20.10;;;1.40;99.90;;;;;;5060705;28;20271;-74
2024/01/19 12:12:53;;;;;;;26.13;18.45;;;1.50;99.90;;;;;;5061018;28;20683;-74
2024/01/19 12:15:40;;;;;;;31.55;20.42;;;1.30;99.90;;;;;;5058818;28;20270;-74
2024/01/19 12:18:26;;;;;;;30.58;20.38;;;1.20;99.90;;;;;;5064753;28;20282;-73
2024/01/19 12:21:11;;;;;;;34.10;20.30;;;1.00;99.90;;;;;;5064377;28;20246;-73
2024/01/19 12:23:59;;;;;;;39.05;22.08;;;1.00;99.90;;;;;;5060479;28;20211;-73
2024/01/19 12:26:50;;;;;;;32.50;23.08;;;0.90;99.90;;;;;;5062495;28;20690;-71
2024/01/19 12:29:36;;;;;;;34.72;21.20;;;1.00;99.90;;;;;;5063450;28;20776;-74
2024/01/19 12:32:21;;;;;;;34.05;20.98;;;1.20;99.90;;;;;;5062704;28;20331;-73
2024/01/19 12:35:08;;;;;;;36.40;20.25;;;1.30;99.90;;;;;;5064384;28;20208;-72
2024/01/19 12:37:53;;;;;;;31.80;20.98;;;1.40;99.90;;;;;;5061353;28;20204;-72
2024/01/19 12:40:40;;;;;;;29.85;20.23;;;1.50;99.90;;;;;;5061353;28;20231;-72
2024/01/19 12:43:30;;;;;;;41.10;21.00;;;1.50;99.90;;;;;;5068327;28;20212;-72
2024/01/19 12:46:15;;;;;;;32.20;23.00;;;1.50;99.90;;;;;;5061722;28;20302;-72
2024/01/19 12:49:02;;;;;;;28.17;19.70;;;1.20;99.90;;;;;;5055003;28;20294;-72
2024/01/19 12:51:47;;;;;;;28.00;20.10;;;1.20;99.90;;;;;;5069740;28;20359;-71
2024/01/19 12:54:42;;;;;;;26.85;20.52;;;1.20;99.90;;;;;;5067881;28;20215;-71
2024/01/19 12:57:30;;;;;;;25.90;20.25;;;1.30;99.90;;;;;;5059711;28;20579;-73
2024/01/19 13:00:18;;;;;;;27.00;18.98;;;1.20;99.90;;;;;;5058979;28;20228;-74
2024/01/19 13:03:05;;;;;;;26.23;18.55;;;1.30;99.90;;;;;;5055004;28;20559;-72
2024/01/19 13:05:50;;;;;;;31.05;19.08;;;1.40;99.90;;;;;;5061193;28;20219;-73
2024/01/19 13:08:36;;;;;;;35.45;19.75;;;1.40;99.90;;;;;;5063545;28;20248;-72
2024/01/19 13:11:23;;;;;;;28.02;18.67;;;1.50;99.90;;;;;;5063544;28;20274;-73
2024/01/19 13:14:11;;;;;;;27.30;20.15;;;1.50;99.90;;;;;;5064307;28;20209;-73
2024/01/19 13:16:58;;;;;;;31.23;20.92;;;1.60;99.90;;;;;;5061310;28;20209;-73
2024/01/19 13:19:44;;;;;;;31.73;20.55;;;1.30;99.90;;;;;;5063043;28;20232;-72
2024/01/19 13:22:30;;;;;;;33.67;19.60;;;1.40;99.90;;;;;;5064468;28;20815;-73
2024/01/19 13:25:16;;;;;;;30.50;19.73;;;1.50;99.90;;;;;;5068590;28;20690;-73
2024/01/19 13:28:01;;;;;;;27.90;20.10;;;1.60;99.90;;;;;;5057704;28;20200;-73
2024/01/19 13:30:49;;;;;;;32.33;20.83;;;1.60;99.90;;;;;;5061773;28;20266;-73
2024/01/19 13:33:35;;;;;;;28.13;20.75;;;1.50;99.90;;;;;;5063576;28;20204;-73
2024/01/19 13:36:21;;;;;;;30.00;20.33;;;1.70;99.90;;;;;;5063762;28;20216;-73
2024/01/19 13:39:07;;;;;;;29.67;20.80;;;1.40;99.90;;;;;;5055847;28;20208;-73
2024/01/19 13:41:53;;;;;;;32.83;20.55;;;1.60;99.90;;;;;;5065404;28;20354;-71
2024/01/19 13:44:39;;;;;;;32.63;20.45;;;1.60;99.90;;;;;;5064357;28;20703;-72
2024/01/19 13:47:25;;;;;;;32.55;22.52;;;1.60;99.90;;;;;;5067492;28;20585;-74
2024/01/19 13:50:11;;;;;;;35.28;20.73;;;1.70;99.90;;;;;;5060723;28;20663;-73
2024/01/19 13:52:57;;;;;;;30.20;21.17;;;1.80;99.90;;;;;;5060316;28;20310;-72
2024/01/19 13:55:43;;;;;;;30.05;20.40;;;1.80;99.90;;;;;;5065694;28;20212;-73
2024/01/19 13:58:28;;;;;;;32.35;22.13;;;1.70;99.90;;;;;;5065634;28;20215;-74
2024/01/19 14:01:14;;;;;;;29.67;22.33;;;1.60;99.90;;;;;;5056715;28;20236;-74
2024/01/19 14:04:03;;;;;;;32.03;21.05;;;1.40;99.90;;;;;;5059692;28;20199;-73
2024/01/19 14:06:49;;;;;;;30.40;21.33;;;1.40;99.90;;;;;;5062340;28;20327;-74
2024/01/19 14:09:35;;;;;;;29.27;20.70;;;1.50;99.90;;;;;;5064729;28;20200;-73